Tachibana Maru — 7JRC — position and weather

sailwx.info

Track history (hours):
 
Tides and Currents Weather Stations Pressure Air Temp Water Temp Dewpoint Dewpoint Depression Visibility Wind Speed Wind Dir Waves Ship Positions

Tachibana Maru

Last reported at 2018-Jan-20 16:30 UTC. Time now 2018-Jan-20 16:53 UTC.
Position N 34°55' E 139°40'.

Length 118 m; draft 5.1 m.

Type: Passenger vessel. MMSI: 431005338.

Date/timePositionNaut miles runAvg speedWind from/ knotsBaromVisibWave heightAir tempDewpointWater temp
2018-Jan-20 16:30N 34°55' E 139°40'918.8
2018-Jan-20 16:01N 35°04' E 139°43'917.9
2018-Jan-20 15:30N 35°13' E 139°46'612.7
2018-Jan-20 15:00N 35°19' E 139°43'815.4
2018-Jan-20 14:30N 35°26' E 139°45'816.4
2018-Jan-20 14:00N 35°34' E 139°49'611.6
2018-Jan-20 13:28N 35°39' E 139°46'0 0.0
2018-Jan-20 13:00N 35°39' E 139°46'0 0.0
2018-Jan-20 12:30N 35°39' E 139°46'0 0.1
2018-Jan-20 11:56N 35°39' E 139°46'0 0.1
2018-Jan-20 11:29N 35°39' E 139°46'0 0.0
2018-Jan-20 10:58N 35°39' E 139°46'3 5.9
2018-Jan-20 10:30N 35°36' E 139°46'815.8
2018-Jan-20 09:59N 35°30' E 139°52'816.8
2018-Jan-20 09:31N 35°24' E 139°46'612.0
2018-Jan-20 09:00N 35°18' E 139°45'713.3
2018-Jan-20 08:30N 35°11' E 139°47'1019.4
2018-Jan-20 08:01N 35°02' E 139°43'46 3.4
2018-Jan-19 18:35N 34°18' E 139°29'417.4
2018-Jan-19 18:21N 34°21' E 139°30'1018.5
2018-Jan-19 17:47N 34°32' E 139°32'519.0
2018-Jan-19 17:30N 34°37' E 139°34'919.2
2018-Jan-19 17:00N 34°46' E 139°37'1019.4
2018-Jan-19 16:30N 34°55' E 139°40'1019.3
2018-Jan-19 16:00N 35°05' E 139°44'918.0
2018-Jan-19 15:30N 35°13' E 139°46'612.6
2018-Jan-19 15:00N 35°19' E 139°43'815.2
2018-Jan-19 14:30N 35°26' E 139°45'816.0
2018-Jan-19 14:00N 35°34' E 139°49'612.2
2018-Jan-19 13:30N 35°39' E 139°46'0 0.0
2018-Jan-19 12:59N 35°39' E 139°46'0 0.0
2018-Jan-19 12:30N 35°39' E 139°46'0 0.0
2018-Jan-19 12:00N 35°39' E 139°46'0 0.0
2018-Jan-19 11:30N 35°39' E 139°46'0 0.0
2018-Jan-19 10:59N 35°39' E 139°46'0 0.0
2018-Jan-19 10:29N 35°39' E 139°46'0 0.0
2018-Jan-19 09:59N 35°39' E 139°46'0 0.0
2018-Jan-19 09:26N 35°39' E 139°46'0 0.0
2018-Jan-19 08:57N 35°39' E 139°46'0 0.0
2018-Jan-19 03:03N 35°39' E 139°46'0 0.0
2018-Jan-19 02:27N 35°39' E 139°46'0 0.0
2018-Jan-19 00:00N 35°39' E 139°46'0 0.0
2018-Jan-18 23:30N 35°39' E 139°46'0 0.0
2018-Jan-18 22:51N 35°39' E 139°46'0 0.0
2018-Jan-18 22:27N 35°39' E 139°46'0 0.0
2018-Jan-18 21:45N 35°39' E 139°46'0 0.0
2018-Jan-18 21:21N 35°39' E 139°46'0 0.0
2018-Jan-18 20:57N 35°39' E 139°46'0 0.0
2018-Jan-18 20:27N 35°39' E 139°46'0 0.0
2018-Jan-18 19:57N 35°39' E 139°46'0 0.0
2018-Jan-18 17:18N 35°39' E 139°46'0 0.0
2018-Jan-18 16:54N 35°39' E 139°46'0 0.0
2018-Jan-18 16:27N 35°39' E 139°46'0 0.0
2018-Jan-18 15:57N 35°39' E 139°46'0 0.0
2018-Jan-18 15:30N 35°39' E 139°46'0 0.0
2018-Jan-18 13:12N 35°39' E 139°46'0 0.0
2018-Jan-18 13:00N 35°39' E 139°46'0 0.0
2018-Jan-18 11:48N 35°39' E 139°46'0 0.1
2018-Jan-18 11:30N 35°39' E 139°46'0 0.0
2018-Jan-18 10:55N 35°39' E 139°46'1 3.5
2018-Jan-18 10:30N 35°38' E 139°46'613.0
2018-Jan-18 10:01N 35°33' E 139°51'714.0
2018-Jan-18 09:30N 35°26' E 139°49'713.8
2018-Jan-18 09:00N 35°20' E 139°44'612.1
2018-Jan-18 08:30N 35°14' E 139°47'817.0
2018-Jan-18 08:00N 35°06' E 139°45'1019.8
2018-Jan-18 07:30N 34°57' E 139°41'2019.6
2018-Jan-18 06:30N 34°37' E 139°37'1319.7
2018-Jan-18 05:51N 34°24' E 139°35'  
2018-Jan-12 15:00N 35°19' E 139°43'715.0
2018-Jan-12 14:30N 35°26' E 139°45'816.6
2018-Jan-12 14:00N 35°34' E 139°50'712.9
2018-Jan-12 13:30N 35°39' E 139°46'0 0.0
2018-Jan-12 13:00N 35°39' E 139°46'0 0.0
2018-Jan-12 12:30N 35°39' E 139°46'0 0.1
2018-Jan-12 12:00N 35°39' E 139°46'0 0.1
2018-Jan-12 11:30N 35°39' E 139°46'0 0.0
2018-Jan-12 11:00N 35°39' E 139°46'1 1.8
2018-Jan-12 10:29N 35°38' E 139°46'715.1
2018-Jan-12 10:00N 35°33' E 139°52'816.0
2018-Jan-12 09:30N 35°25' E 139°48'713.0
2018-Jan-12 09:00N 35°19' E 139°44'611.9
2018-Jan-12 08:30N 35°14' E 139°47'917.7
2018-Jan-12 08:00N 35°05' E 139°45'918.7
2018-Jan-12 07:30N 34°56' E 139°42'1017.4
2018-Jan-12 06:57N 34°47' E 139°40'1018.6
2018-Jan-12 06:25N 34°37' E 139°39'23 2.0
2018-Jan-11 19:08N 34°14' E 139°36'217.1
2018-Jan-11 19:00N 34°16' E 139°36'917.5
2018-Jan-11 18:29N 34°25' E 139°33'817.2
2018-Jan-11 18:00N 34°33' E 139°34'918.3
2018-Jan-11 17:30N 34°42' E 139°34'918.3
2018-Jan-11 17:00N 34°51' E 139°38'917.6
2018-Jan-11 16:31N 34°59' E 139°41'816.8
2018-Jan-11 16:01N 35°07' E 139°44'815.4
2018-Jan-11 15:31N 35°15' E 139°46'612.6
2018-Jan-11 15:01N 35°20' E 139°42'715.0
2018-Jan-11 14:31N 35°27' E 139°46'714.8
2018-Jan-11 14:01N 35°34' E 139°49'6 9.4
2018-Jan-11 13:23N 35°39' E 139°46'0 0.0
2018-Jan-11 13:00N 35°39' E 139°46'0 0.1
2018-Jan-11 12:19N 35°39' E 139°46'0 0.1
2018-Jan-11 11:20N 35°39' E 139°46'0 0.0
2018-Jan-11 11:00N 35°39' E 139°46'4 7.9
2018-Jan-11 10:30N 35°36' E 139°47'815.9
2018-Jan-11 10:00N 35°28' E 139°51'815.9
2018-Jan-11 09:30N 35°22' E 139°45'612.1
2018-Jan-11 09:00N 35°16' E 139°46'815.5
2018-Jan-11 08:30N 35°08' E 139°47'1019.2
2018-Jan-11 08:00N 34°59' E 139°42'1318.2
2018-Jan-11 07:18N 34°47' E 139°38'619.0
2018-Jan-11 06:58N 34°41' E 139°37'2417.7
2018-Jan-11 05:38N 34°17' E 139°36'5 0.4
2018-Jan-10 19:14N 34°12' E 139°35'417.4
2018-Jan-10 19:00N 34°16' E 139°34'918.0
2018-Jan-10 18:30N 34°25' E 139°34'917.8
2018-Jan-10 18:00N 34°34' E 139°34'917.6
2018-Jan-10 17:29N 34°43' E 139°36'918.4
2018-Jan-10 17:00N 34°52' E 139°40'918.2
2018-Jan-10 16:31N 35°00' E 139°42'  
Track history (hours):
 
Tides and Currents Weather Stations Pressure Air Temp Water Temp Dewpoint Dewpoint Depression Visibility Wind Speed Wind Dir Waves Ship Positions

Tachibana Maru

Last reported at 2018-Jan-20 16:30 UTC. Time now 2018-Jan-20 16:53 UTC.
Position N 34°55' E 139°40'.

Length 118 m; draft 5.1 m.

Type: Passenger vessel. MMSI: 431005338.

Date/timePositionNaut miles runAvg speedWind from/ knotsBaromVisibWave heightAir tempDewpointWater temp
2018-Jan-20 16:30N 34°55' E 139°40'918.8
2018-Jan-20 16:01N 35°04' E 139°43'917.9
2018-Jan-20 15:30N 35°13' E 139°46'612.7
2018-Jan-20 15:00N 35°19' E 139°43'815.4
2018-Jan-20 14:30N 35°26' E 139°45'816.4
2018-Jan-20 14:00N 35°34' E 139°49'611.6
2018-Jan-20 13:28N 35°39' E 139°46'0 0.0
2018-Jan-20 13:00N 35°39' E 139°46'0 0.0
2018-Jan-20 12:30N 35°39' E 139°46'0 0.1
2018-Jan-20 11:56N 35°39' E 139°46'0 0.1
2018-Jan-20 11:29N 35°39' E 139°46'0 0.0
2018-Jan-20 10:58N 35°39' E 139°46'3 5.9
2018-Jan-20 10:30N 35°36' E 139°46'815.8
2018-Jan-20 09:59N 35°30' E 139°52'816.8
2018-Jan-20 09:31N 35°24' E 139°46'612.0
2018-Jan-20 09:00N 35°18' E 139°45'713.3
2018-Jan-20 08:30N 35°11' E 139°47'1019.4
2018-Jan-20 08:01N 35°02' E 139°43'46 3.4
2018-Jan-19 18:35N 34°18' E 139°29'417.4
2018-Jan-19 18:21N 34°21' E 139°30'1018.5
2018-Jan-19 17:47N 34°32' E 139°32'519.0
2018-Jan-19 17:30N 34°37' E 139°34'919.2
2018-Jan-19 17:00N 34°46' E 139°37'1019.4
2018-Jan-19 16:30N 34°55' E 139°40'1019.3
2018-Jan-19 16:00N 35°05' E 139°44'918.0
2018-Jan-19 15:30N 35°13' E 139°46'612.6
2018-Jan-19 15:00N 35°19' E 139°43'815.2
2018-Jan-19 14:30N 35°26' E 139°45'816.0
2018-Jan-19 14:00N 35°34' E 139°49'612.2
2018-Jan-19 13:30N 35°39' E 139°46'0 0.0
2018-Jan-19 12:59N 35°39' E 139°46'0 0.0
2018-Jan-19 12:30N 35°39' E 139°46'0 0.0
2018-Jan-19 12:00N 35°39' E 139°46'0 0.0
2018-Jan-19 11:30N 35°39' E 139°46'0 0.0
2018-Jan-19 10:59N 35°39' E 139°46'0 0.0
2018-Jan-19 10:29N 35°39' E 139°46'0 0.0
2018-Jan-19 09:59N 35°39' E 139°46'0 0.0
2018-Jan-19 09:26N 35°39' E 139°46'0 0.0
2018-Jan-19 08:57N 35°39' E 139°46'0 0.0
2018-Jan-19 03:03N 35°39' E 139°46'0 0.0
2018-Jan-19 02:27N 35°39' E 139°46'0 0.0
2018-Jan-19 00:00N 35°39' E 139°46'0 0.0
2018-Jan-18 23:30N 35°39' E 139°46'0 0.0
2018-Jan-18 22:51N 35°39' E 139°46'0 0.0
2018-Jan-18 22:27N 35°39' E 139°46'0 0.0
2018-Jan-18 21:45N 35°39' E 139°46'0 0.0
2018-Jan-18 21:21N 35°39' E 139°46'0 0.0
2018-Jan-18 20:57N 35°39' E 139°46'0 0.0
2018-Jan-18 20:27N 35°39' E 139°46'0 0.0
2018-Jan-18 19:57N 35°39' E 139°46'0 0.0
2018-Jan-18 17:18N 35°39' E 139°46'0 0.0
2018-Jan-18 16:54N 35°39' E 139°46'0 0.0
2018-Jan-18 16:27N 35°39' E 139°46'0 0.0
2018-Jan-18 15:57N 35°39' E 139°46'0 0.0
2018-Jan-18 15:30N 35°39' E 139°46'0 0.0
2018-Jan-18 13:12N 35°39' E 139°46'0 0.0
2018-Jan-18 13:00N 35°39' E 139°46'0 0.0
2018-Jan-18 11:48N 35°39' E 139°46'0 0.1
2018-Jan-18 11:30N 35°39' E 139°46'0 0.0
2018-Jan-18 10:55N 35°39' E 139°46'1 3.5
2018-Jan-18 10:30N 35°38' E 139°46'613.0
2018-Jan-18 10:01N 35°33' E 139°51'714.0
2018-Jan-18 09:30N 35°26' E 139°49'713.8
2018-Jan-18 09:00N 35°20' E 139°44'612.1
2018-Jan-18 08:30N 35°14' E 139°47'817.0
2018-Jan-18 08:00N 35°06' E 139°45'1019.8
2018-Jan-18 07:30N 34°57' E 139°41'2019.6
2018-Jan-18 06:30N 34°37' E 139°37'1319.7
2018-Jan-18 05:51N 34°24' E 139°35'  
2018-Jan-12 15:00N 35°19' E 139°43'715.0
2018-Jan-12 14:30N 35°26' E 139°45'816.6
2018-Jan-12 14:00N 35°34' E 139°50'712.9
2018-Jan-12 13:30N 35°39' E 139°46'0 0.0
2018-Jan-12 13:00N 35°39' E 139°46'0 0.0
2018-Jan-12 12:30N 35°39' E 139°46'0 0.1
2018-Jan-12 12:00N 35°39' E 139°46'0 0.1
2018-Jan-12 11:30N 35°39' E 139°46'0 0.0
2018-Jan-12 11:00N 35°39' E 139°46'1 1.8
2018-Jan-12 10:29N 35°38' E 139°46'715.1
2018-Jan-12 10:00N 35°33' E 139°52'816.0
2018-Jan-12 09:30N 35°25' E 139°48'713.0
2018-Jan-12 09:00N 35°19' E 139°44'611.9
2018-Jan-12 08:30N 35°14' E 139°47'917.7
2018-Jan-12 08:00N 35°05' E 139°45'918.7
2018-Jan-12 07:30N 34°56' E 139°42'1017.4
2018-Jan-12 06:57N 34°47' E 139°40'1018.6
2018-Jan-12 06:25N 34°37' E 139°39'23 2.0
2018-Jan-11 19:08N 34°14' E 139°36'217.1
2018-Jan-11 19:00N 34°16' E 139°36'917.5
2018-Jan-11 18:29N 34°25' E 139°33'817.2
2018-Jan-11 18:00N 34°33' E 139°34'918.3
2018-Jan-11 17:30N 34°42' E 139°34'918.3
2018-Jan-11 17:00N 34°51' E 139°38'917.6
2018-Jan-11 16:31N 34°59' E 139°41'816.8
2018-Jan-11 16:01N 35°07' E 139°44'815.4
2018-Jan-11 15:31N 35°15' E 139°46'612.6
2018-Jan-11 15:01N 35°20' E 139°42'715.0
2018-Jan-11 14:31N 35°27' E 139°46'714.8
2018-Jan-11 14:01N 35°34' E 139°49'6 9.4
2018-Jan-11 13:23N 35°39' E 139°46'0 0.0
2018-Jan-11 13:00N 35°39' E 139°46'0 0.1
2018-Jan-11 12:19N 35°39' E 139°46'0 0.1
2018-Jan-11 11:20N 35°39' E 139°46'0 0.0
2018-Jan-11 11:00N 35°39' E 139°46'4 7.9
2018-Jan-11 10:30N 35°36' E 139°47'815.9
2018-Jan-11 10:00N 35°28' E 139°51'815.9
2018-Jan-11 09:30N 35°22' E 139°45'612.1
2018-Jan-11 09:00N 35°16' E 139°46'815.5
2018-Jan-11 08:30N 35°08' E 139°47'1019.2
2018-Jan-11 08:00N 34°59' E 139°42'1318.2
2018-Jan-11 07:18N 34°47' E 139°38'619.0
2018-Jan-11 06:58N 34°41' E 139°37'2417.7
2018-Jan-11 05:38N 34°17' E 139°36'5 0.4
2018-Jan-10 19:14N 34°12' E 139°35'417.4
2018-Jan-10 19:00N 34°16' E 139°34'918.0
2018-Jan-10 18:30N 34°25' E 139°34'917.8
2018-Jan-10 18:00N 34°34' E 139°34'917.6
2018-Jan-10 17:29N 34°43' E 139°36'918.4
2018-Jan-10 17:00N 34°52' E 139°40'918.2
2018-Jan-10 16:31N 35°00' E 139°42'  

Dump ship's entire track history